Time;durP1;ratioP1;P1;durP2;ratioP2;P2;SDS_P1;SDS_P2;PMS_P1;PMS_P2;Temp;Humidity;BMP_temperature;BMP_pressure;BME280_temperature;BME280_humidity;BME280_pressure;Samples;Min_cycle;Max_cycle;Signal;HPM_P1;HPM_P2
2023/03/16 00:00:12;;;;;;;;;;;4.10;49.80;;;;;;4989698;28;20445;-88
2023/03/16 00:02:39;;;;;;;;;;;4.10;49.70;;;;;;4990837;28;20287;-88
2023/03/16 00:05:05;;;;;;;;;;;4.20;49.80;;;;;;4990677;28;19925;-90
2023/03/16 00:07:30;;;;;;;;;;;4.10;49.90;;;;;;4991557;28;19910;-90
2023/03/16 00:09:56;;;;;;;;;;;4.20;49.80;;;;;;4991599;28;20013;-89
2023/03/16 00:12:22;;;;;;;;;;;4.20;49.80;;;;;;4990560;28;20424;-88
2023/03/16 00:14:48;;;;;;;;;;;4.20;49.80;;;;;;4990734;28;20405;-91
2023/03/16 00:17:20;;;;;;;;;;;4.20;49.70;;;;;;4990531;28;20360;-92
2023/03/16 00:19:53;;;;;;;;;;;4.20;49.70;;;;;;4992179;28;20713;-92
2023/03/16 00:22:23;;;;;;;;;;;4.20;49.70;;;;;;4991607;28;20556;-89
2023/03/16 00:24:48;;;;;;;;;;;4.20;49.90;;;;;;4991905;28;19964;-88
2023/03/16 00:27:14;;;;;;;;;;;4.30;49.90;;;;;;4990102;28;19910;-92
2023/03/16 00:29:55;;;;;;;;;;;4.30;50.10;;;;;;4991487;28;20427;-92
2023/03/16 00:32:41;;;;;;;;;;;4.30;50.10;;;;;;4989562;28;19909;-89
2023/03/16 00:35:07;;;;;;;;;;;4.30;50.30;;;;;;4989692;28;19922;-91
2023/03/16 00:37:33;;;;;;;;;;;4.40;50.40;;;;;;4989812;28;19910;-90
2023/03/16 00:39:58;;;;;;;;;;;4.40;50.20;;;;;;4989156;28;19917;-91
2023/03/16 00:42:26;;;;;;;;;;;4.40;50.20;;;;;;4985492;28;19925;-90
2023/03/16 00:44:56;;;;;;;;;;;4.40;50.20;;;;;;4988453;28;19973;-89
2023/03/16 00:47:29;;;;;;;;;;;4.30;50.10;;;;;;4988525;28;19930;-89
2023/03/16 00:49:55;;;;;;;;;;;4.30;50.10;;;;;;4990051;28;20004;-88
2023/03/16 00:52:22;;;;;;;;;;;4.30;50.30;;;;;;4988331;28;20045;-90
2023/03/16 00:54:48;;;;;;;;;;;4.30;50.30;;;;;;4989365;28;20150;-91
2023/03/16 00:57:16;;;;;;;;;;;4.30;50.20;;;;;;4987885;28;19953;-92
2023/03/16 00:59:41;;;;;;;;;;;4.30;50.10;;;;;;4981776;28;19954;-92
2023/03/16 01:02:08;;;;;;;;;;;4.30;50.20;;;;;;4987258;28;20344;-89
2023/03/16 01:04:34;;;;;;;;;;;4.30;50.40;;;;;;4984971;28;19926;-88
2023/03/16 01:07:01;;;;;;;;;;;4.30;50.50;;;;;;4988194;28;19917;-88
2023/03/16 01:09:26;;;;;;;;;;;4.30;50.40;;;;;;4984357;28;19922;-89
2023/03/16 01:11:53;;;;;;;;;;;4.30;50.50;;;;;;4989730;28;19921;-91
2023/03/16 01:14:19;;;;;;;;;;;4.30;50.50;;;;;;4988379;28;19918;-88
2023/03/16 01:16:44;;;;;;;;;;;4.20;50.50;;;;;;4992353;28;20024;-88
2023/03/16 01:19:11;;;;;;;;;;;4.20;50.50;;;;;;4991874;28;20416;-88
2023/03/16 01:21:37;;;;;;;;;;;4.20;50.40;;;;;;4991650;28;19925;-90
2023/03/16 01:24:03;;;;;;;;;;;4.20;50.40;;;;;;4990777;28;19926;-88
2023/03/16 01:26:28;;;;;;;;;;;4.20;50.30;;;;;;4991945;28;19914;-91
2023/03/16 01:28:54;;;;;;;;;;;4.10;50.30;;;;;;4991981;28;19924;-91
2023/03/16 01:31:20;;;;;;;;;;;4.00;50.40;;;;;;4993605;28;20001;-90
2023/03/16 01:33:45;;;;;;;;;;;4.00;50.40;;;;;;4993216;28;19917;-87
2023/03/16 01:36:12;;;;;;;;;;;4.00;50.50;;;;;;4995607;28;19910;-88
2023/03/16 01:38:37;;;;;;;;;;;4.00;50.50;;;;;;4991053;28;19934;-87
2023/03/16 01:41:04;;;;;;;;;;;4.00;50.70;;;;;;4990639;28;20597;-91
2023/03/16 01:43:31;;;;;;;;;;;3.90;50.70;;;;;;4990874;28;19924;-91
2023/03/16 01:46:05;;;;;;;;;;;3.90;50.80;;;;;;4990711;28;19913;-87
2023/03/16 01:48:37;;;;;;;;;;;3.90;50.90;;;;;;4989175;28;20312;-88
2023/03/16 01:51:08;;;;;;;;;;;3.90;50.90;;;;;;4990644;28;19941;-88
2023/03/16 01:53:40;;;;;;;;;;;3.80;51.10;;;;;;4989392;28;19964;-89
2023/03/16 01:56:07;;;;;;;;;;;3.90;51.10;;;;;;4988087;28;20036;-87
2023/03/16 01:58:34;;;;;;;;;;;3.80;51.10;;;;;;4990777;28;19948;-91
2023/03/16 02:00:59;;;;;;;;;;;3.80;50.90;;;;;;4989772;28;20292;-91
2023/03/16 02:03:26;;;;;;;;;;;3.80;51.00;;;;;;4990881;28;19983;-89
2023/03/16 02:05:55;;;;;;;;;;;3.80;51.10;;;;;;4991419;28;19921;-90
2023/03/16 02:08:21;;;;;;;;;;;3.80;51.10;;;;;;4990305;28;20630;-91
2023/03/16 02:10:47;;;;;;;;;;;3.70;50.90;;;;;;4991854;28;19914;-90
2023/03/16 02:13:13;;;;;;;;;;;3.70;50.80;;;;;;4992664;28;19909;-90
2023/03/16 02:15:38;;;;;;;;;;;3.60;50.90;;;;;;4991868;28;19928;-90
2023/03/16 02:18:06;;;;;;;;;;;3.60;51.10;;;;;;4992642;28;19910;-91
2023/03/16 02:20:44;;;;;;;;;;;3.60;51.10;;;;;;4991915;28;19917;-91
2023/03/16 02:23:17;;;;;;;;;;;3.50;51.00;;;;;;4992648;28;19977;-88
2023/03/16 02:25:51;;;;;;;;;;;3.50;50.90;;;;;;4992496;28;19917;-90
2023/03/16 02:28:17;;;;;;;;;;;3.50;51.10;;;;;;4992490;28;19917;-88
2023/03/16 02:30:43;;;;;;;;;;;3.40;51.10;;;;;;4991936;28;19910;-89
2023/03/16 02:33:08;;;;;;;;;;;3.40;51.10;;;;;;4991090;28;20297;-88
2023/03/16 02:35:34;;;;;;;;;;;3.40;51.20;;;;;;4991588;28;19910;-91
2023/03/16 02:38:00;;;;;;;;;;;3.40;51.30;;;;;;4992783;28;19916;-88
2023/03/16 02:40:27;;;;;;;;;;;3.40;51.40;;;;;;4991679;28;20361;-89
2023/03/16 02:43:01;;;;;;;;;;;3.30;51.30;;;;;;4990251;28;20491;-88
2023/03/16 02:45:32;;;;;;;;;;;3.30;51.30;;;;;;4990621;28;19972;-88
2023/03/16 02:48:02;;;;;;;;;;;3.30;51.30;;;;;;4989884;28;19914;-89
2023/03/16 02:50:28;;;;;;;;;;;3.40;51.20;;;;;;4990380;28;19976;-88
2023/03/16 02:52:54;;;;;;;;;;;3.30;51.30;;;;;;4988587;28;19918;-90
2023/03/16 02:55:20;;;;;;;;;;;3.40;51.50;;;;;;4989208;28;19964;-92
2023/03/16 02:57:46;;;;;;;;;;;3.40;51.70;;;;;;4990085;28;20372;-90
2023/03/16 03:00:16;;;;;;;;;;;3.40;51.70;;;;;;4989963;28;19922;-91
2023/03/16 03:02:42;;;;;;;;;;;3.40;51.80;;;;;;4991496;28;19921;-91
2023/03/16 03:05:07;;;;;;;;;;;3.40;51.80;;;;;;4989527;28;19940;-89
2023/03/16 03:07:33;;;;;;;;;;;3.50;51.70;;;;;;4989111;28;20001;-89
2023/03/16 03:09:59;;;;;;;;;;;3.40;51.50;;;;;;4991473;28;19921;-91
2023/03/16 03:12:24;;;;;;;;;;;3.40;51.50;;;;;;4990579;28;20403;-89
2023/03/16 03:14:50;;;;;;;;;;;3.40;51.50;;;;;;4989324;28;19920;-89
2023/03/16 03:17:16;;;;;;;;;;;3.40;51.50;;;;;;4987763;28;19918;-89
2023/03/16 03:19:42;;;;;;;;;;;3.30;51.40;;;;;;4990460;28;19957;-90
2023/03/16 03:22:07;;;;;;;;;;;3.30;51.40;;;;;;4986692;28;20016;-88
2023/03/16 03:24:33;;;;;;;;;;;3.30;51.40;;;;;;5004574;28;19972;-90
2023/03/16 03:27:00;;;;;;;;;;;3.20;51.40;;;;;;4990319;28;19968;-92
2023/03/16 03:29:33;;;;;;;;;;;3.20;51.50;;;;;;5004090;28;19922;-88
2023/03/16 03:32:05;;;;;;;;;;;3.20;51.50;;;;;;4987655;28;19921;-88
2023/03/16 03:34:30;;;;;;;;;;;3.20;51.70;;;;;;4990588;28;19925;-88
2023/03/16 03:36:56;;;;;;;;;;;3.20;51.90;;;;;;4990730;28;19914;-88
2023/03/16 03:39:22;;;;;;;;;;;3.20;52.30;;;;;;4988754;28;19922;-90
2023/03/16 03:41:47;;;;;;;;;;;3.20;52.60;;;;;;4989142;28;20343;-90
2023/03/16 03:44:13;;;;;;;;;;;3.30;52.60;;;;;;4989346;28;19928;-88
2023/03/16 03:46:38;;;;;;;;;;;3.40;52.50;;;;;;4988274;28;20040;-90
2023/03/16 03:49:04;;;;;;;;;;;3.40;52.70;;;;;;4988146;28;19918;-91
2023/03/16 03:51:31;;;;;;;;;;;3.40;52.50;;;;;;4990721;28;19980;-89
2023/03/16 03:53:57;;;;;;;;;;;3.40;52.30;;;;;;4990143;28;20001;-90
2023/03/16 03:56:22;;;;;;;;;;;3.40;52.40;;;;;;4989374;28;19922;-90
2023/03/16 03:58:48;;;;;;;;;;;3.40;52.10;;;;;;4991459;28;19984;-92
2023/03/16 04:01:15;;;;;;;;;;;3.40;52.00;;;;;;4988368;28;19929;-90
2023/03/16 04:03:41;;;;;;;;;;;3.40;51.90;;;;;;4988129;28;20376;-90
2023/03/16 04:06:07;;;;;;;;;;;3.40;51.70;;;;;;4989288;28;19914;-91
2023/03/16 04:08:33;;;;;;;;;;;3.30;51.70;;;;;;4989728;28;20324;-90
2023/03/16 04:10:58;;;;;;;;;;;3.30;51.70;;;;;;4990232;28;19921;-89
2023/03/16 04:13:24;;;;;;;;;;;3.30;51.70;;;;;;4990437;28;19918;-89
2023/03/16 04:15:55;;;;;;;;;;;3.30;51.70;;;;;;4990333;28;19921;-88
2023/03/16 04:18:21;;;;;;;;;;;3.20;51.70;;;;;;4989965;28;19920;-90
2023/03/16 04:20:47;;;;;;;;;;;3.20;51.80;;;;;;4973464;28;19928;-87
2023/03/16 04:23:12;;;;;;;;;;;3.20;51.90;;;;;;4992548;28;20440;-89
2023/03/16 04:25:38;;;;;;;;;;;3.30;52.10;;;;;;4991584;28;19955;-90
2023/03/16 04:28:04;;;;;;;;;;;3.20;52.20;;;;;;4992073;28;20372;-88
2023/03/16 04:30:30;;;;;;;;;;;3.30;52.40;;;;;;4991975;28;19941;-88
2023/03/16 04:32:55;;;;;;;;;;;3.30;52.50;;;;;;4991789;28;19909;-92
2023/03/16 04:35:21;;;;;;;;;;;3.30;52.40;;;;;;4991217;28;19925;-92
2023/03/16 04:37:47;;;;;;;;;;;3.40;52.40;;;;;;4990302;28;19914;-92
2023/03/16 04:40:15;;;;;;;;;;;3.40;52.60;;;;;;4990359;28;20328;-92
2023/03/16 04:42:41;;;;;;;;;;;3.50;52.60;;;;;;4992247;28;20294;-90
2023/03/16 04:45:07;;;;;;;;;;;3.50;52.50;;;;;;4993135;28;19919;-91
2023/03/16 04:47:33;;;;;;;;;;;3.60;52.50;;;;;;4994284;28;19921;-92
2023/03/16 04:49:59;;;;;;;;;;;3.60;52.50;;;;;;4991998;28;20432;-90
2023/03/16 04:52:25;;;;;;;;;;;3.70;52.60;;;;;;4996393;28;20380;-91
2023/03/16 04:54:50;;;;;;;;;;;3.80;52.70;;;;;;4996999;28;19965;-89
2023/03/16 04:57:18;;;;;;;;;;;3.80;52.90;;;;;;4992938;28;20395;-89
2023/03/16 04:59:43;;;;;;;;;;;3.90;52.90;;;;;;4993250;28;19921;-89
2023/03/16 05:02:09;;;;;;;;;;;4.00;52.90;;;;;;4989929;28;19929;-90
2023/03/16 05:04:36;;;;;;;;;;;4.20;52.90;;;;;;4991003;28;19964;-92
2023/03/16 05:07:01;;;;;;;;;;;4.20;52.90;;;;;;4991535;28;20357;-91
2023/03/16 05:09:27;;;;;;;;;;;4.30;52.80;;;;;;5007411;28;20021;-88
2023/03/16 05:11:53;;;;;;;;;;;4.30;52.80;;;;;;4992530;28;19918;-92
2023/03/16 05:14:18;;;;;;;;;;;4.40;52.80;;;;;;4992286;28;20020;-89
2023/03/16 05:16:44;;;;;;;;;;;4.50;52.80;;;;;;4993388;28;19924;-91
2023/03/16 05:19:11;;;;;;;;;;;4.60;52.70;;;;;;4988482;28;19918;-90
2023/03/16 05:21:37;;;;;;;;;;;4.70;52.60;;;;;;4990394;28;20117;-92
2023/03/16 05:24:04;;;;;;;;;;;4.70;52.60;;;;;;4993035;28;20377;-88
2023/03/16 05:26:29;;;;;;;;;;;4.80;52.50;;;;;;4993762;28;19914;-88
2023/03/16 05:28:55;;;;;;;;;;;4.90;52.40;;;;;;4990645;28;19944;-92
2023/03/16 05:31:21;;;;;;;;;;;4.90;52.40;;;;;;4991836;28;20661;-88
2023/03/16 05:33:47;;;;;;;;;;;5.00;52.40;;;;;;4992034;28;19981;-90
2023/03/16 05:36:12;;;;;;;;;;;5.10;52.40;;;;;;4991810;28;19953;-89
2023/03/16 05:38:41;;;;;;;;;;;5.20;52.40;;;;;;4990568;28;19918;-89
2023/03/16 05:41:07;;;;;;;;;;;5.20;52.30;;;;;;4987458;28;19917;-89
2023/03/16 05:43:33;;;;;;;;;;;5.30;52.40;;;;;;4995359;28;19925;-91
2023/03/16 05:45:58;;;;;;;;;;;5.40;52.30;;;;;;4993672;28;20506;-90
2023/03/16 05:48:25;;;;;;;;;;;5.50;52.40;;;;;;4992375;28;19918;-89
2023/03/16 05:50:51;;;;;;;;;;;5.70;52.80;;;;;;4995222;28;20268;-88
2023/03/16 05:53:17;;;;;;;;;;;5.80;53.20;;;;;;4994743;28;19914;-87
2023/03/16 05:55:42;;;;;;;;;;;6.00;53.40;;;;;;4994250;28;19917;-88
2023/03/16 05:58:08;;;;;;;;;;;6.30;53.60;;;;;;4994169;28;20412;-91
2023/03/16 06:00:33;;;;;;;;;;;6.60;54.10;;;;;;4993532;28;19913;-89
2023/03/16 06:03:00;;;;;;;;;;;6.90;54.30;;;;;;4993644;28;20868;-90
2023/03/16 06:05:27;;;;;;;;;;;7.20;53.80;;;;;;4994391;28;19916;-92
2023/03/16 06:07:52;;;;;;;;;;;7.50;53.70;;;;;;4994755;28;19917;-90
2023/03/16 06:10:18;;;;;;;;;;;7.80;53.60;;;;;;4994804;28;20385;-90
2023/03/16 06:12:44;;;;;;;;;;;8.00;53.50;;;;;;4992833;28;19914;-90
2023/03/16 06:15:10;;;;;;;;;;;8.20;52.50;;;;;;4993594;28;19940;-89
2023/03/16 06:17:36;;;;;;;;;;;8.30;51.50;;;;;;4991043;28;19918;-90
2023/03/16 06:20:04;;;;;;;;;;;8.50;50.90;;;;;;4989154;28;19941;-91
2023/03/16 06:22:30;;;;;;;;;;;8.60;50.40;;;;;;4996397;28;20013;-92
2023/03/16 06:24:55;;;;;;;;;;;8.70;50.10;;;;;;4995976;28;19922;-91
2023/03/16 06:27:24;;;;;;;;;;;8.80;49.50;;;;;;4998040;28;19910;-91
2023/03/16 06:29:49;;;;;;;;;;;8.80;49.20;;;;;;4999223;28;19918;-91
2023/03/16 06:32:15;;;;;;;;;;;9.00;49.60;;;;;;4995500;28;19910;-91
2023/03/16 06:34:41;;;;;;;;;;;9.00;49.20;;;;;;4998283;28;19925;-91
2023/03/16 06:37:07;;;;;;;;;;;9.20;49.00;;;;;;4995673;28;19949;-91
2023/03/16 06:39:32;;;;;;;;;;;9.20;48.70;;;;;;4992887;28;19925;-90
2023/03/16 06:41:58;;;;;;;;;;;9.30;48.50;;;;;;4992455;28;20016;-88
2023/03/16 06:44:25;;;;;;;;;;;9.30;47.60;;;;;;4992863;28;19922;-90
2023/03/16 06:46:51;;;;;;;;;;;9.40;47.40;;;;;;4992548;28;19917;-88
2023/03/16 06:49:21;;;;;;;;;;;9.50;47.10;;;;;;4993564;28;19918;-90
2023/03/16 06:51:47;;;;;;;;;;;9.50;47.00;;;;;;4993964;28;19918;-89
2023/03/16 06:54:12;;;;;;;;;;;9.70;47.10;;;;;;4991892;28;19922;-91
2023/03/16 06:56:38;;;;;;;;;;;9.60;45.90;;;;;;4992027;28;20690;-87
2023/03/16 06:59:03;;;;;;;;;;;9.80;46.30;;;;;;4990678;28;19917;-91
2023/03/16 07:01:29;;;;;;;;;;;9.90;45.80;;;;;;4990714;28;19928;-91
2023/03/16 07:03:55;;;;;;;;;;;10.00;45.90;;;;;;4989378;28;19918;-90
2023/03/16 07:06:20;;;;;;;;;;;10.10;45.30;;;;;;4989237;28;19914;-91
2023/03/16 07:08:46;;;;;;;;;;;10.30;45.60;;;;;;4989333;28;19932;-90
2023/03/16 07:11:13;;;;;;;;;;;10.50;45.20;;;;;;4988035;28;20012;-91
2023/03/16 07:13:39;;;;;;;;;;;10.50;44.10;;;;;;4989171;28;19922;-87
2023/03/16 07:16:05;;;;;;;;;;;10.60;43.40;;;;;;4990381;28;19918;-90
2023/03/16 07:18:30;;;;;;;;;;;10.70;42.90;;;;;;4989590;28;20308;-92
2023/03/16 07:20:57;;;;;;;;;;;11.10;43.80;;;;;;4990553;28;20258;-89
2023/03/16 07:23:23;;;;;;;;;;;11.30;43.70;;;;;;4988432;28;19922;-91
2023/03/16 07:25:50;;;;;;;;;;;11.50;42.30;;;;;;4991358;28;19918;-88
2023/03/16 07:28:16;;;;;;;;;;;11.70;42.10;;;;;;4989073;28;20008;-92
2023/03/16 07:30:43;;;;;;;;;;;12.00;41.90;;;;;;4987877;28;19929;-88
2023/03/16 07:33:09;;;;;;;;;;;12.30;41.60;;;;;;4985026;28;19918;-89
2023/03/16 07:35:34;;;;;;;;;;;12.50;40.30;;;;;;4989150;28;19921;-91
2023/03/16 07:38:00;;;;;;;;;;;12.70;40.10;;;;;;4990336;28;19997;-91
2023/03/16 07:40:26;;;;;;;;;;;12.90;40.70;;;;;;4988623;28;20436;-87
2023/03/16 07:42:51;;;;;;;;;;;13.00;40.20;;;;;;4989090;28;20077;-89
2023/03/16 07:45:17;;;;;;;;;;;13.00;38.90;;;;;;4987447;28;19921;-88
2023/03/16 07:47:43;;;;;;;;;;;13.10;39.60;;;;;;4971846;28;19952;-91
2023/03/16 07:50:10;;;;;;;;;;;12.90;37.40;;;;;;4990671;28;19922;-88
2023/03/16 07:52:39;;;;;;;;;;;12.80;37.00;;;;;;4991194;28;20300;-88
2023/03/16 07:55:05;;;;;;;;;;;12.90;37.40;;;;;;4986872;28;19921;-89
2023/03/16 07:57:34;;;;;;;;;;;12.90;37.20;;;;;;4991429;28;19985;-89
2023/03/16 08:00:04;;;;;;;;;;;12.90;36.90;;;;;;4989869;28;19928;-89
2023/03/16 08:02:30;;;;;;;;;;;13.00;36.90;;;;;;4995947;28;19926;-92
2023/03/16 08:04:55;;;;;;;;;;;13.10;37.70;;;;;;4989907;28;20311;-91
2023/03/16 08:07:21;;;;;;;;;;;13.20;37.70;;;;;;4986865;28;19922;-90
2023/03/16 08:09:48;;;;;;;;;;;13.30;37.60;;;;;;4989162;28;19928;-92
2023/03/16 08:12:13;;;;;;;;;;;13.30;37.10;;;;;;4989618;28;19949;-90
2023/03/16 08:17:25;;;;;;;;;;;13.50;36.80;;;;;;4987728;28;19941;-89
2023/03/16 08:19:53;;;;;;;;;;;13.50;36.20;;;;;;5007612;28;19921;-92
2023/03/16 08:22:19;;;;;;;;;;;13.70;36.90;;;;;;5005677;28;20419;-90
2023/03/16 08:24:45;;;;;;;;;;;13.90;36.80;;;;;;5010640;28;19941;-89
2023/03/16 08:27:12;;;;;;;;;;;14.00;36.20;;;;;;5007886;28;20396;-88
2023/03/16 08:29:37;;;;;;;;;;;14.00;35.90;;;;;;4985311;28;20005;-90
2023/03/16 08:32:04;;;;;;;;;;;14.10;35.80;;;;;;4988062;28;19969;-90
2023/03/16 08:34:30;;;;;;;;;;;14.30;36.20;;;;;;4989640;28;19918;-93
2023/03/16 08:36:56;;;;;;;;;;;14.40;36.50;;;;;;4986365;28;19918;-89
2023/03/16 08:39:22;;;;;;;;;;;14.50;35.80;;;;;;4984792;28;19922;-90
2023/03/16 08:41:47;;;;;;;;;;;14.70;35.80;;;;;;4990085;28;19926;-92
2023/03/16 08:44:18;;;;;;;;;;;14.80;35.90;;;;;;4991590;28;19952;-91
2023/03/16 08:46:44;;;;;;;;;;;15.00;35.90;;;;;;4988079;28;20300;-89
2023/03/16 08:49:10;;;;;;;;;;;15.10;35.80;;;;;;4988902;28;19964;-88
2023/03/16 08:51:35;;;;;;;;;;;15.30;35.80;;;;;;4987936;28;19921;-90
2023/03/16 08:54:01;;;;;;;;;;;15.40;34.60;;;;;;4991409;28;19928;-88
2023/03/16 08:56:29;;;;;;;;;;;15.60;34.60;;;;;;4989701;28;20308;-92
2023/03/16 08:58:56;;;;;;;;;;;15.70;34.40;;;;;;4989135;28;19918;-91
2023/03/16 09:01:22;;;;;;;;;;;15.80;34.20;;;;;;4989311;28;20472;-89
2023/03/16 09:03:51;;;;;;;;;;;15.80;33.00;;;;;;4990032;28;19922;-89
2023/03/16 09:06:18;;;;;;;;;;;16.10;33.80;;;;;;5002842;28;20014;-92
2023/03/16 09:08:46;;;;;;;;;;;16.30;33.90;;;;;;4981607;28;19933;-92
2023/03/16 09:11:13;;;;;;;;;;;16.60;33.60;;;;;;4989008;28;19917;-90
2023/03/16 09:13:39;;;;;;;;;;;17.00;34.40;;;;;;4987288;28;20008;-87
2023/03/16 09:16:05;;;;;;;;;;;17.50;33.50;;;;;;4987751;28;20013;-89
2023/03/16 09:18:31;;;;;;;;;;;17.80;32.70;;;;;;4989001;28;19977;-90
2023/03/16 09:21:01;;;;;;;;;;;18.00;31.50;;;;;;4991161;28;19909;-92
2023/03/16 09:23:27;;;;;;;;;;;18.20;31.80;;;;;;4989097;28;20367;-89
2023/03/16 09:25:55;;;;;;;;;;;18.30;31.50;;;;;;4989463;28;19914;-88
2023/03/16 09:28:21;;;;;;;;;;;18.40;30.80;;;;;;4991701;28;19925;-88
2023/03/16 09:30:48;;;;;;;;;;;18.50;31.20;;;;;;4993042;28;19914;-89
2023/03/16 09:33:14;;;;;;;;;;;18.60;30.10;;;;;;4993107;28;19918;-91
2023/03/16 09:35:40;;;;;;;;;;;18.90;31.40;;;;;;4992681;28;19925;-92
2023/03/16 09:38:07;;;;;;;;;;;19.30;31.30;;;;;;4994804;28;20020;-92
2023/03/16 09:40:34;;;;;;;;;;;19.80;31.40;;;;;;4993422;28;19957;-89
2023/03/16 09:43:00;;;;;;;;;;;20.20;29.80;;;;;;4992392;28;20028;-88
2023/03/16 09:45:33;;;;;;;;;;;20.60;30.00;;;;;;4992183;28;20042;-90
2023/03/16 09:48:00;;;;;;;;;;;21.00;30.10;;;;;;4994112;28;20004;-90
2023/03/16 09:50:28;;;;;;;;;;;21.30;29.00;;;;;;4993010;28;19964;-90
2023/03/16 09:53:03;;;;;;;;;;;21.50;27.80;;;;;;4994588;28;19914;-89
2023/03/16 09:55:33;;;;;;;;;;;21.80;28.60;;;;;;5009323;28;19925;-89
2023/03/16 09:58:22;;;;;;;;;;;22.00;28.10;;;;;;5012556;28;19960;-90
2023/03/16 10:01:09;;;;;;;;;;;22.40;28.10;;;;;;5012871;28;19920;-93
2023/03/16 10:03:41;;;;;;;;;;;22.70;27.30;;;;;;5022012;28;20448;-91
2023/03/16 10:06:10;;;;;;;;;;;22.80;26.00;;;;;;4993787;28;19913;-91
2023/03/16 10:08:41;;;;;;;;;;;22.80;25.50;;;;;;4993348;28;19914;-92
2023/03/16 10:11:22;;;;;;;;;;;22.80;24.70;;;;;;4991084;28;19972;-91
2023/03/16 10:13:57;;;;;;;;;;;22.70;23.90;;;;;;4991643;28;19913;-91
2023/03/16 10:16:26;;;;;;;;;;;22.40;23.70;;;;;;4991394;28;19925;-88
2023/03/16 10:19:06;;;;;;;;;;;22.30;23.90;;;;;;4990400;28;19949;-90
2023/03/16 10:21:37;;;;;;;;;;;22.40;24.70;;;;;;4991665;28;20348;-89
2023/03/16 10:24:03;;;;;;;;;;;22.40;23.80;;;;;;4993131;28;19921;-90
2023/03/16 10:26:34;;;;;;;;;;;22.10;23.20;;;;;;4988349;28;19917;-88
2023/03/16 10:29:00;;;;;;;;;;;22.00;23.70;;;;;;4992155;28;19987;-89
2023/03/16 10:31:27;;;;;;;;;;;21.80;23.90;;;;;;4990787;28;20421;-88
2023/03/16 10:34:04;;;;;;;;;;;21.70;23.70;;;;;;4990721;28;20357;-91
2023/03/16 10:36:33;;;;;;;;;;;21.70;24.00;;;;;;4991167;28;19918;-92
2023/03/16 10:39:08;;;;;;;;;;;21.50;23.80;;;;;;4990858;28;19914;-89
2023/03/16 10:41:36;;;;;;;;;;;21.30;23.40;;;;;;4990397;28;19972;-89
2023/03/16 10:44:15;;;;;;;;;;;21.00;23.80;;;;;;4990812;28;19914;-93
2023/03/16 10:46:47;;;;;;;;;;;21.10;24.40;;;;;;4989417;28;19964;-93
2023/03/16 10:49:19;;;;;;;;;;;20.80;24.00;;;;;;4992679;28;19925;-90
2023/03/16 10:51:51;;;;;;;;;;;20.70;23.70;;;;;;4991021;28;19918;-93
2023/03/16 10:54:23;;;;;;;;;;;20.50;24.00;;;;;;4991083;28;20025;-90
2023/03/16 10:56:50;;;;;;;;;;;20.40;24.30;;;;;;4991251;28;19910;-92
2023/03/16 10:59:33;;;;;;;;;;;20.30;24.40;;;;;;4993010;28;20004;-91
2023/03/16 11:02:13;;;;;;;;;;;20.30;24.20;;;;;;4990935;28;19918;-92
2023/03/16 11:04:40;;;;;;;;;;;20.10;24.30;;;;;;4991018;28;20373;-91
2023/03/16 11:07:08;;;;;;;;;;;20.20;24.80;;;;;;4990949;28;19909;-94
2023/03/16 11:09:36;;;;;;;;;;;20.20;24.40;;;;;;4995316;28;19921;-89
2023/03/16 11:12:21;;;;;;;;;;;20.30;24.40;;;;;;4990444;28;19956;-90
2023/03/16 11:14:48;;;;;;;;;;;20.30;24.50;;;;;;4998812;28;19921;-92
2023/03/16 11:17:16;;;;;;;;;;;20.40;25.10;;;;;;5011551;28;19928;-90
2023/03/16 11:19:42;;;;;;;;;;;20.50;24.50;;;;;;4996291;28;19922;-89
2023/03/16 11:22:11;;;;;;;;;;;20.40;24.20;;;;;;4991566;28;19925;-89
2023/03/16 11:24:43;;;;;;;;;;;20.20;23.80;;;;;;4997667;28;19917;-87
2023/03/16 11:27:20;;;;;;;;;;;19.80;23.80;;;;;;5004253;28;19914;-92
2023/03/16 11:30:04;;;;;;;;;;;19.70;24.00;;;;;;4994092;28;19921;-90
2023/03/16 11:32:32;;;;;;;;;;;19.60;24.50;;;;;;4989343;28;19914;-90
2023/03/16 11:34:58;;;;;;;;;;;19.40;24.80;;;;;;4990193;28;20311;-91
2023/03/16 11:37:36;;;;;;;;;;;19.50;25.40;;;;;;4988195;28;20017;-90
2023/03/16 11:40:13;;;;;;;;;;;19.50;25.10;;;;;;4992683;28;19925;-88
2023/03/16 11:42:47;;;;;;;;;;;19.50;25.00;;;;;;4985853;28;19922;-89
2023/03/16 11:45:15;;;;;;;;;;;19.50;24.90;;;;;;4982206;28;19922;-90
2023/03/16 11:47:49;;;;;;;;;;;19.40;24.90;;;;;;4986596;28;19957;-90
2023/03/16 11:50:17;;;;;;;;;;;19.40;24.90;;;;;;4993957;28;19975;-91
2023/03/16 11:52:52;;;;;;;;;;;19.50;25.40;;;;;;4988982;28;19921;-89
2023/03/16 11:55:36;;;;;;;;;;;19.60;25.50;;;;;;4999081;28;19918;-90
2023/03/16 11:58:10;;;;;;;;;;;19.70;25.20;;;;;;4985134;28;20448;-89
2023/03/16 12:00:44;;;;;;;;;;;19.60;24.90;;;;;;4992652;28;19914;-89
2023/03/16 12:03:21;;;;;;;;;;;19.30;24.60;;;;;;4988495;28;19921;-92
2023/03/16 12:05:55;;;;;;;;;;;19.30;25.20;;;;;;4995450;28;20060;-91
2023/03/16 12:08:29;;;;;;;;;;;19.30;25.30;;;;;;4991537;28;20276;-94
2023/03/16 12:11:13;;;;;;;;;;;19.20;25.40;;;;;;4989490;28;19936;-90
2023/03/16 12:13:49;;;;;;;;;;;19.20;25.60;;;;;;4988832;28;19925;-93
2023/03/16 12:16:18;;;;;;;;;;;19.00;25.30;;;;;;4991095;28;19978;-92
2023/03/16 12:18:58;;;;;;;;;;;18.90;25.00;;;;;;4993384;28;19967;-89
2023/03/16 12:21:32;;;;;;;;;;;18.60;24.80;;;;;;4991587;28;20293;-89
2023/03/16 12:24:02;;;;;;;;;;;18.50;25.10;;;;;;4992742;28;19933;-91
2023/03/16 12:26:31;;;;;;;;;;;18.50;25.40;;;;;;4993911;28;19918;-91
2023/03/16 12:28:57;;;;;;;;;;;18.50;25.70;;;;;;4988437;28;20032;-89
2023/03/16 12:31:27;;;;;;;;;;;18.50;25.30;;;;;;4989151;28;19964;-88
2023/03/16 12:33:52;;;;;;;;;;;18.60;25.40;;;;;;4989929;28;19924;-93
2023/03/16 12:36:32;;;;;;;;;;;18.60;25.10;;;;;;5008669;28;19921;-89
2023/03/16 12:39:02;;;;;;;;;;;18.60;25.20;;;;;;4986514;28;19972;-88
2023/03/16 12:41:28;;;;;;;;;;;18.60;25.20;;;;;;4990545;28;20012;-89
2023/03/16 12:43:54;;;;;;;;;;;18.70;25.30;;;;;;5003797;28;20009;-89
2023/03/16 12:46:23;;;;;;;;;;;18.80;25.30;;;;;;4989151;28;19913;-89
2023/03/16 12:48:51;;;;;;;;;;;18.80;25.10;;;;;;4989376;28;20069;-90
2023/03/16 12:51:17;;;;;;;;;;;19.10;25.10;;;;;;4989578;28;20111;-90
2023/03/16 12:53:44;;;;;;;;;;;19.50;25.20;;;;;;4986743;28;20020;-89
2023/03/16 12:56:11;;;;;;;;;;;20.10;25.00;;;;;;4995467;28;20153;-89
2023/03/16 12:58:44;;;;;;;;;;;20.50;24.00;;;;;;4983223;28;20038;-92
2023/03/16 13:01:11;;;;;;;;;;;20.80;23.40;;;;;;4988642;28;20017;-93
2023/03/16 13:03:37;;;;;;;;;;;20.70;22.30;;;;;;4988617;28;20862;-89
2023/03/16 13:06:02;;;;;;;;;;;20.50;22.30;;;;;;4997924;28;19914;-94
2023/03/16 13:08:44;;;;;;;;;;;20.40;22.50;;;;;;4993435;28;19925;-89
2023/03/16 13:11:13;;;;;;;;;;;20.20;22.40;;;;;;4990171;28;19918;-88
2023/03/16 13:14:11;;;;;;;;;;;20.10;22.60;;;;;;4991389;28;19922;-89
2023/03/16 13:16:37;;;;;;;;;;;20.00;22.60;;;;;;4975665;28;19925;-92
2023/03/16 13:19:18;;;;;;;;;;;19.90;23.00;;;;;;4987186;28;20754;-93
2023/03/16 13:21:45;;;;;;;;;;;19.80;23.10;;;;;;4989474;28;19968;-90
2023/03/16 13:24:34;;;;;;;;;;;19.70;23.20;;;;;;4992464;28;19964;-93
2023/03/16 13:27:12;;;;;;;;;;;19.70;23.70;;;;;;4985298;28;19918;-89
2023/03/16 13:29:38;;;;;;;;;;;19.70;23.60;;;;;;5000035;28;19969;-89
2023/03/16 13:32:13;;;;;;;;;;;19.50;23.30;;;;;;4989706;28;20372;-91
2023/03/16 13:34:50;;;;;;;;;;;19.30;23.30;;;;;;4994282;28;19922;-93
2023/03/16 13:37:18;;;;;;;;;;;19.30;23.60;;;;;;4991610;28;20342;-92
2023/03/16 13:39:52;;;;;;;;;;;19.10;23.50;;;;;;4993709;28;19928;-89
2023/03/16 13:42:22;;;;;;;;;;;18.80;23.60;;;;;;4992271;28;19922;-90
2023/03/16 13:44:50;;;;;;;;;;;18.80;23.80;;;;;;4995676;28;19918;-92
2023/03/16 13:47:18;;;;;;;;;;;18.70;24.00;;;;;;4987008;28;19914;-94
2023/03/16 13:49:44;;;;;;;;;;;18.70;24.00;;;;;;4991467;28;19933;-90
2023/03/16 13:52:21;;;;;;;;;;;18.60;24.10;;;;;;4991425;28;19913;-90
2023/03/16 13:54:47;;;;;;;;;;;18.50;24.20;;;;;;4992398;28;19925;-90
2023/03/16 13:57:14;;;;;;;;;;;18.50;24.30;;;;;;4989865;28;20234;-91
2023/03/16 13:59:42;;;;;;;;;;;18.50;24.20;;;;;;4990642;28;19922;-89
2023/03/16 14:02:26;;;;;;;;;;;18.50;24.40;;;;;;4991149;28;19956;-91
2023/03/16 14:04:52;;;;;;;;;;;18.60;24.50;;;;;;4991440;28;19918;-89
2023/03/16 14:07:19;;;;;;;;;;;18.60;24.60;;;;;;4990675;28;19918;-91
2023/03/16 14:09:45;;;;;;;;;;;18.70;24.80;;;;;;4989123;28;20559;-93
2023/03/16 14:12:13;;;;;;;;;;;18.50;24.70;;;;;;4991801;28;19918;-93
2023/03/16 14:14:40;;;;;;;;;;;18.30;24.70;;;;;;4991704;28;19921;-90
2023/03/16 14:17:12;;;;;;;;;;;18.30;24.90;;;;;;4992156;28;19917;-92
2023/03/16 14:19:44;;;;;;;;;;;18.10;25.00;;;;;;4997797;28;20281;-93
2023/03/16 14:22:15;;;;;;;;;;;17.80;25.00;;;;;;4990871;28;19949;-91
2023/03/16 14:24:41;;;;;;;;;;;17.70;25.10;;;;;;4994266;28;20677;-90
2023/03/16 14:27:18;;;;;;;;;;;17.50;25.10;;;;;;4989906;28;20391;-91
2023/03/16 14:29:44;;;;;;;;;;;17.50;25.30;;;;;;4997219;28;20276;-89
2023/03/16 14:32:26;;;;;;;;;;;17.50;25.30;;;;;;4993402;28;20373;-88